Time;durP1;ratioP1;P1;durP2;ratioP2;P2;SDS_P1;SDS_P2;PMS_P1;PMS_P2;Temp;Humidity;BMP_temperature;BMP_pressure;BME280_temperature;BME280_humidity;BME280_pressure;Samples;Min_cycle;Max_cycle;Signal;HPM_P1;HPM_P2
2021/05/31 00:00:38;;;;;;;4.45;4.07;;;18.40;99.90;;;;;;5069412;28;20020;-68
2021/05/31 00:03:04;;;;;;;4.43;3.97;;;18.40;99.90;;;;;;5076574;28;20444;-67
2021/05/31 00:05:31;;;;;;;4.35;3.70;;;18.50;99.90;;;;;;5060035;28;20128;-68
2021/05/31 00:07:57;;;;;;;3.85;3.25;;;18.70;99.90;;;;;;5054184;28;20499;-68
2021/05/31 00:10:24;;;;;;;4.43;3.42;;;18.70;99.90;;;;;;5060731;28;20410;-67
2021/05/31 00:12:50;;;;;;;4.05;3.75;;;18.70;99.90;;;;;;5054448;28;20086;-67
2021/05/31 00:15:16;;;;;;;4.40;4.00;;;18.50;99.90;;;;;;5060591;28;20028;-67
2021/05/31 00:17:42;;;;;;;5.90;3.80;;;18.40;99.90;;;;;;5054633;28;20028;-67
2021/05/31 00:20:10;;;;;;;4.75;4.25;;;18.30;99.90;;;;;;5061115;28;20025;-67
2021/05/31 00:22:36;;;;;;;4.22;3.92;;;18.40;99.90;;;;;;5054424;28;20028;-68
2021/05/31 00:25:04;;;;;;;4.90;3.95;;;18.00;99.90;;;;;;5061099;28;20354;-67
2021/05/31 00:27:29;;;;;;;4.40;4.10;;;18.10;99.90;;;;;;5054028;28;20409;-67
2021/05/31 00:29:55;;;;;;;5.50;3.95;;;18.10;99.90;;;;;;5060822;28;20032;-68
2021/05/31 00:32:21;;;;;;;4.45;3.88;;;18.10;99.90;;;;;;5054042;28;20032;-67
2021/05/31 00:34:47;;;;;;;5.05;4.38;;;18.10;99.90;;;;;;5061379;28;20017;-67
2021/05/31 00:37:14;;;;;;;4.18;3.88;;;18.00;99.90;;;;;;5052150;28;20092;-68
2021/05/31 00:39:40;;;;;;;4.65;4.00;;;18.10;99.90;;;;;;5061713;28;20116;-68
2021/05/31 00:42:06;;;;;;;7.55;4.28;;;17.90;99.90;;;;;;5051506;28;20483;-68
2021/05/31 00:44:32;;;;;;;4.10;3.90;;;18.00;99.90;;;;;;5062571;28;20036;-67
2021/05/31 00:46:58;;;;;;;6.60;4.32;;;18.10;99.90;;;;;;5051568;28;20021;-68
2021/05/31 00:49:27;;;;;;;4.68;4.28;;;18.20;99.90;;;;;;5063260;28;20397;-67
2021/05/31 00:51:54;;;;;;;6.38;3.70;;;18.30;99.90;;;;;;5051168;28;20036;-68
2021/05/31 00:54:20;;;;;;;4.90;4.53;;;18.20;99.90;;;;;;5059449;28;20025;-68
2021/05/31 00:56:46;;;;;;;6.85;4.35;;;18.30;99.90;;;;;;5071203;28;20031;-68
2021/05/31 00:59:13;;;;;;;19.30;4.30;;;18.30;99.90;;;;;;5062845;28;20194;-68
2021/05/31 01:01:40;;;;;;;5.90;4.22;;;18.10;99.90;;;;;;5051648;28;20079;-68
2021/05/31 01:04:06;;;;;;;3.80;3.50;;;18.00;99.90;;;;;;5062586;28;20020;-67
2021/05/31 01:06:39;;;;;;;3.83;3.30;;;18.00;99.90;;;;;;5051596;28;20072;-68
2021/05/31 01:09:11;;;;;;;3.42;3.05;;;18.00;99.90;;;;;;5062826;28;20028;-68
2021/05/31 01:11:55;;;;;;;6.40;4.28;;;18.00;99.90;;;;;;5050873;28;20118;-67
2021/05/31 01:14:39;;;;;;;3.70;3.40;;;17.80;99.90;;;;;;5062303;28;20021;-68
2021/05/31 01:17:08;;;;;;;4.18;3.88;;;17.80;99.90;;;;;;5051485;28;20017;-68
2021/05/31 01:19:48;;;;;;;5.63;3.95;;;17.80;99.90;;;;;;5062076;28;20025;-68
2021/05/31 01:22:14;;;;;;;4.05;3.65;;;17.90;99.90;;;;;;5051520;28;20028;-67
2021/05/31 01:24:49;;;;;;;3.67;3.47;;;17.80;99.90;;;;;;5061217;28;20021;-68
2021/05/31 01:27:21;;;;;;;4.63;3.95;;;17.70;99.90;;;;;;5051566;28;20374;-68
2021/05/31 01:30:00;;;;;;;12.05;4.15;;;17.60;99.90;;;;;;5060123;28;20057;-68
2021/05/31 01:32:46;;;;;;;7.65;4.18;;;17.60;99.90;;;;;;5053350;28;20058;-68
2021/05/31 01:35:17;;;;;;;4.65;4.30;;;17.40;99.90;;;;;;5059772;28;20068;-68
2021/05/31 01:37:44;;;;;;;4.32;3.90;;;17.20;99.90;;;;;;5052669;28;20075;-67
2021/05/31 01:40:12;;;;;;;5.10;4.20;;;17.30;99.90;;;;;;5059337;28;20493;-68
2021/05/31 01:42:38;;;;;;;4.53;4.15;;;17.30;99.90;;;;;;5052714;28;20095;-68
2021/05/31 01:45:05;;;;;;;4.90;4.45;;;17.20;99.90;;;;;;5058907;28;20105;-67
2021/05/31 01:47:34;;;;;;;4.65;4.25;;;17.00;99.90;;;;;;5053229;28;20059;-67
2021/05/31 01:50:02;;;;;;;4.13;3.75;;;17.00;99.90;;;;;;5059662;28;20028;-68
2021/05/31 01:52:28;;;;;;;6.38;4.32;;;17.00;99.90;;;;;;5052404;28;20489;-67
2021/05/31 01:54:58;;;;;;;4.70;3.97;;;17.10;99.90;;;;;;5059308;28;20512;-68
2021/05/31 01:57:24;;;;;;;4.55;4.15;;;17.10;99.90;;;;;;5052110;28;20024;-68
2021/05/31 01:59:51;;;;;;;12.60;4.43;;;16.90;99.90;;;;;;5059277;28;20151;-69
2021/05/31 02:02:18;;;;;;;9.00;4.03;;;16.80;99.90;;;;;;5051685;28;20044;-68
2021/05/31 02:04:45;;;;;;;3.83;3.53;;;16.90;99.90;;;;;;5060233;28;20036;-68
2021/05/31 02:07:10;;;;;;;6.20;3.90;;;16.90;99.90;;;;;;5050243;28;20110;-70
2021/05/31 02:09:36;;;;;;;5.05;4.32;;;16.70;99.90;;;;;;5060854;28;20505;-68
2021/05/31 02:12:13;;;;;;;7.35;4.07;;;16.70;99.90;;;;;;5050049;28;20041;-69
2021/05/31 02:14:50;;;;;;;4.47;3.53;;;16.70;99.90;;;;;;5059280;28;20016;-68
2021/05/31 02:17:40;;;;;;;4.00;3.70;;;17.00;99.90;;;;;;5067927;28;20532;-68
2021/05/31 02:20:09;;;;;;;3.72;3.42;;;16.60;99.90;;;;;;5058836;28;20032;-69
2021/05/31 02:22:45;;;;;;;4.78;3.55;;;16.80;99.90;;;;;;5052128;28;20028;-68
2021/05/31 02:25:12;;;;;;;4.82;3.50;;;16.60;99.90;;;;;;5058626;28;20507;-67
2021/05/31 02:27:38;;;;;;;4.70;3.35;;;16.70;99.90;;;;;;5052316;28;20009;-68
2021/05/31 02:30:06;;;;;;;5.22;3.95;;;16.90;99.90;;;;;;5058396;28;20028;-68
2021/05/31 02:32:31;;;;;;;3.22;3.00;;;16.90;99.90;;;;;;5052159;28;20103;-68
2021/05/31 02:34:58;;;;;;;3.20;2.92;;;16.90;99.90;;;;;;5058875;28;20075;-68
2021/05/31 02:37:39;;;;;;;3.92;3.17;;;16.80;99.90;;;;;;5050625;28;20419;-68
2021/05/31 02:40:07;;;;;;;4.45;3.63;;;16.90;99.90;;;;;;5058253;28;20021;-68
2021/05/31 02:42:45;;;;;;;6.30;3.67;;;17.00;99.90;;;;;;5033790;28;20059;-68
2021/05/31 02:45:11;;;;;;;3.38;3.08;;;16.80;99.90;;;;;;5058597;28;20025;-68
2021/05/31 02:47:37;;;;;;;7.60;4.65;;;16.80;99.90;;;;;;5051954;28;20020;-68
2021/05/31 02:50:04;;;;;;;4.90;3.67;;;16.70;99.90;;;;;;5058897;28;20032;-68
2021/05/31 02:52:30;;;;;;;6.10;3.95;;;16.80;99.90;;;;;;5051506;28;20067;-67
2021/05/31 02:54:55;;;;;;;4.30;3.92;;;16.90;99.90;;;;;;5058421;28;20052;-67
2021/05/31 02:57:21;;;;;;;3.95;3.58;;;16.80;99.90;;;;;;5050562;28;20021;-69
2021/05/31 02:59:47;;;;;;;3.17;2.97;;;16.90;99.90;;;;;;5058886;28;20469;-68
2021/05/31 03:02:12;;;;;;;5.03;3.17;;;16.90;99.90;;;;;;5050001;28;20063;-68
2021/05/31 03:04:38;;;;;;;3.35;3.10;;;16.80;99.90;;;;;;5060144;28;20112;-69
2021/05/31 03:07:04;;;;;;;6.45;3.33;;;16.90;99.90;;;;;;5049200;28;20509;-68
2021/05/31 03:09:30;;;;;;;3.97;3.28;;;16.90;99.90;;;;;;5060527;28;20032;-68
2021/05/31 03:11:55;;;;;;;4.50;3.03;;;16.90;99.90;;;;;;5049067;28;20599;-68
2021/05/31 03:14:21;;;;;;;2.97;2.78;;;16.60;99.90;;;;;;5057357;28;20108;-68
2021/05/31 03:16:47;;;;;;;3.90;2.85;;;16.40;99.90;;;;;;5069459;28;20122;-68
2021/05/31 03:19:12;;;;;;;2.80;2.60;;;16.40;99.90;;;;;;5061038;28;20596;-67
2021/05/31 03:21:38;;;;;;;3.72;2.70;;;16.30;99.90;;;;;;5049203;28;20036;-68
2021/05/31 03:24:04;;;;;;;6.78;2.90;;;16.40;99.90;;;;;;5060299;28;20033;-67
2021/05/31 03:26:30;;;;;;;2.97;2.65;;;16.30;99.90;;;;;;5049006;28;20028;-68
2021/05/31 03:28:55;;;;;;;4.10;3.70;;;16.40;99.90;;;;;;5059278;28;20017;-67
2021/05/31 03:31:21;;;;;;;4.03;3.55;;;16.50;99.90;;;;;;5050514;28;20064;-68
2021/05/31 03:33:47;;;;;;;8.18;3.92;;;16.40;99.90;;;;;;5057734;28;20028;-69
2021/05/31 03:36:12;;;;;;;6.05;3.33;;;16.30;99.90;;;;;;5051428;28;20366;-68
2021/05/31 03:38:38;;;;;;;5.70;3.47;;;16.10;99.90;;;;;;5056370;28;20044;-67
2021/05/31 03:41:07;;;;;;;6.78;3.38;;;16.20;99.90;;;;;;5052142;28;20100;-67
2021/05/31 03:43:33;;;;;;;4.90;3.45;;;16.00;99.90;;;;;;5056049;28;20516;-67
2021/05/31 03:45:59;;;;;;;5.82;4.20;;;16.10;99.90;;;;;;5053542;28;20028;-68
2021/05/31 03:48:25;;;;;;;6.50;3.58;;;16.10;99.90;;;;;;5054694;28;20037;-69
2021/05/31 03:51:07;;;;;;;4.70;3.90;;;15.80;99.90;;;;;;5057625;28;20044;-68
2021/05/31 03:53:33;;;;;;;6.72;3.47;;;15.90;99.90;;;;;;5058787;28;20116;-68
2021/05/31 03:55:59;;;;;;;12.27;3.90;;;15.80;99.90;;;;;;5056523;28;20124;-70
2021/05/31 03:58:24;;;;;;;3.95;3.55;;;15.60;99.90;;;;;;5058348;28;20024;-68
2021/05/31 04:00:50;;;;;;;7.38;3.55;;;15.70;99.90;;;;;;5058188;28;20024;-69
2021/05/31 04:03:16;;;;;;;7.38;3.40;;;15.90;99.90;;;;;;5057179;28;20115;-68
2021/05/31 04:05:52;;;;;;;6.30;2.78;;;16.10;99.90;;;;;;5058887;28;20032;-68
2021/05/31 04:13:45;;;;;;;12.27;2.95;;;16.10;99.90;;;;;;5060780;28;20050;-68
2021/05/31 04:16:11;;;;;;;6.82;3.17;;;16.00;99.90;;;;;;5055099;28;20036;-68
2021/05/31 04:18:37;;;;;;;12.18;3.45;;;16.10;99.90;;;;;;5059805;28;20036;-68
2021/05/31 04:21:02;;;;;;;7.93;3.55;;;16.00;99.90;;;;;;5055982;28;20564;-68
2021/05/31 04:23:28;;;;;;;12.32;3.55;;;15.70;99.90;;;;;;5057725;28;20512;-68
2021/05/31 04:25:54;;;;;;;9.57;3.90;;;15.60;99.90;;;;;;5056859;28;20028;-69
2021/05/31 04:28:19;;;;;;;6.00;3.33;;;15.40;99.90;;;;;;5056919;28;20029;-68
2021/05/31 04:30:45;;;;;;;9.57;3.58;;;15.40;99.90;;;;;;5050672;28;20625;-68
2021/05/31 04:33:11;;;;;;;10.23;3.75;;;15.40;99.90;;;;;;5055674;28;20029;-68
2021/05/31 04:35:36;;;;;;;13.35;3.78;;;15.60;99.90;;;;;;5059422;28;20112;-68
2021/05/31 04:38:02;;;;;;;10.23;3.80;;;15.80;99.90;;;;;;5053764;28;20436;-68
2021/05/31 04:40:28;;;;;;;7.45;3.45;;;15.80;99.90;;;;;;5049852;28;20029;-68
2021/05/31 04:42:53;;;;;;;9.77;3.50;;;15.70;99.90;;;;;;5054131;28;20028;-68
2021/05/31 04:45:19;;;;;;;11.60;3.85;;;15.80;99.90;;;;;;5060891;28;20029;-68
2021/05/31 04:47:45;;;;;;;8.25;3.40;;;15.90;99.90;;;;;;5053940;28;20020;-69
2021/05/31 04:50:12;;;;;;;12.32;3.70;;;15.90;99.90;;;;;;5060600;28;20031;-69
2021/05/31 04:52:37;;;;;;;8.25;4.10;;;15.70;99.90;;;;;;5053536;28;20032;-69
2021/05/31 04:55:03;;;;;;;6.93;3.70;;;15.70;99.90;;;;;;5060366;28;20025;-67
2021/05/31 04:57:29;;;;;;;8.85;3.22;;;16.00;99.90;;;;;;5053567;28;20097;-68
2021/05/31 04:59:55;;;;;;;10.05;3.90;;;16.00;99.90;;;;;;5059803;28;20108;-68
2021/05/31 05:02:20;;;;;;;7.25;3.50;;;16.00;99.90;;;;;;5052820;28;20052;-68
2021/05/31 05:04:46;;;;;;;6.43;3.50;;;15.90;99.90;;;;;;5061343;28;20029;-67
2021/05/31 05:07:14;;;;;;;6.32;3.45;;;16.00;99.90;;;;;;5033061;28;20442;-68
2021/05/31 05:09:40;;;;;;;10.25;4.15;;;15.80;99.90;;;;;;5060291;28;20048;-68
2021/05/31 05:12:06;;;;;;;8.45;3.83;;;15.80;99.90;;;;;;5069702;28;20492;-68
2021/05/31 05:14:32;;;;;;;13.23;3.47;;;15.60;99.90;;;;;;5062039;28;20029;-68
2021/05/31 05:16:58;;;;;;;8.57;3.70;;;15.70;99.90;;;;;;5051204;28;20027;-67
2021/05/31 05:19:23;;;;;;;8.48;3.63;;;15.70;99.90;;;;;;5062853;28;20115;-68
2021/05/31 05:21:49;;;;;;;15.18;4.00;;;15.90;99.90;;;;;;5050682;28;20040;-68
2021/05/31 05:24:15;;;;;;;8.70;3.47;;;15.90;99.90;;;;;;5061918;28;20465;-68
2021/05/31 05:26:41;;;;;;;9.95;3.33;;;15.90;99.90;;;;;;5050822;28;20056;-67
2021/05/31 05:29:07;;;;;;;9.23;3.20;;;16.10;99.90;;;;;;5061972;28;20079;-68
2021/05/31 05:31:32;;;;;;;7.78;3.47;;;16.10;99.90;;;;;;5051028;28;20029;-68
2021/05/31 05:34:00;;;;;;;6.82;3.55;;;16.30;99.90;;;;;;5061028;28;20063;-68
2021/05/31 05:36:44;;;;;;;8.02;3.60;;;16.20;99.90;;;;;;5051350;28;20100;-68
2021/05/31 05:47:42;;;;;;;11.70;3.80;;;16.30;99.90;;;;;;5050773;28;20033;-68
2021/05/31 05:49:48;;;;;;;10.38;3.92;;;16.10;99.90;;;;;;5059462;28;20493;-67
2021/05/31 05:52:15;;;;;;;6.00;4.13;;;16.40;99.90;;;;;;5050374;28;20040;-67
2021/05/31 05:54:40;;;;;;;9.93;5.05;;;16.30;99.90;;;;;;5059077;28;20038;-67
2021/05/31 05:57:07;;;;;;;6.88;5.20;;;16.10;99.90;;;;;;5069247;28;20017;-68
2021/05/31 05:59:33;;;;;;;10.02;5.30;;;16.20;99.90;;;;;;5061235;28;20072;-68
2021/05/31 06:01:59;;;;;;;13.20;5.63;;;16.00;99.90;;;;;;5050430;28;20119;-68
2021/05/31 06:04:24;;;;;;;16.50;5.00;;;16.10;99.90;;;;;;5061540;28;20040;-68
2021/05/31 06:06:51;;;;;;;5.95;4.30;;;16.40;99.90;;;;;;5050157;28;20064;-68
2021/05/31 06:09:17;;;;;;;9.27;4.78;;;16.30;99.90;;;;;;5061116;28;20016;-67
2021/05/31 06:11:43;;;;;;;13.10;4.43;;;16.40;99.90;;;;;;5049147;28;20044;-67
2021/05/31 06:14:09;;;;;;;6.47;4.00;;;16.50;99.90;;;;;;5061444;28;20047;-68
2021/05/31 06:16:38;;;;;;;6.63;3.63;;;16.60;99.90;;;;;;5050491;28;20024;-68
2021/05/31 06:19:04;;;;;;;9.13;3.60;;;16.70;99.90;;;;;;5060763;28;20047;-68
2021/05/31 06:21:30;;;;;;;5.60;3.50;;;16.80;99.90;;;;;;5050365;28;20474;-68
2021/05/31 06:23:56;;;;;;;7.32;3.78;;;16.90;99.90;;;;;;5059063;28;20031;-68
2021/05/31 06:26:22;;;;;;;7.55;4.07;;;17.10;99.90;;;;;;5050283;28;20091;-68
2021/05/31 06:28:48;;;;;;;5.47;3.58;;;17.20;99.90;;;;;;5058381;28;20060;-67
2021/05/31 06:31:14;;;;;;;6.07;3.33;;;17.30;99.90;;;;;;5052562;28;20025;-68
2021/05/31 06:33:40;;;;;;;3.58;3.33;;;17.40;99.90;;;;;;5056828;28;20036;-67
2021/05/31 06:36:10;;;;;;;7.32;3.30;;;17.40;99.90;;;;;;5053624;28;20028;-67
2021/05/31 06:38:36;;;;;;;9.05;3.40;;;17.60;99.90;;;;;;5056007;28;20044;-68
2021/05/31 06:41:03;;;;;;;3.70;3.30;;;17.60;99.90;;;;;;5053039;28;20120;-68
2021/05/31 06:43:30;;;;;;;5.45;3.00;;;17.50;99.90;;;;;;5055498;28;20103;-67
2021/05/31 06:45:58;;;;;;;6.35;3.05;;;17.50;99.90;;;;;;5054963;28;20108;-67
2021/05/31 06:48:23;;;;;;;5.15;2.80;;;17.60;99.90;;;;;;5054796;28;20020;-68
2021/05/31 06:50:49;;;;;;;6.68;2.85;;;17.70;99.90;;;;;;5055647;28;20051;-68
2021/05/31 06:53:16;;;;;;;3.55;2.80;;;17.90;99.90;;;;;;5053102;28;20587;-68
2021/05/31 06:55:43;;;;;;;4.57;2.85;;;18.00;99.90;;;;;;5056115;28;20086;-67
2021/05/31 06:58:09;;;;;;;2.92;2.72;;;18.20;99.90;;;;;;5052585;28;20032;-67
2021/05/31 07:00:35;;;;;;;3.35;3.03;;;18.10;99.90;;;;;;5057761;28;20021;-67
2021/05/31 07:03:00;;;;;;;3.47;3.10;;;18.10;99.90;;;;;;5052115;28;20029;-68
2021/05/31 07:05:26;;;;;;;4.72;3.28;;;18.20;99.90;;;;;;5058370;28;20128;-68
2021/05/31 07:07:53;;;;;;;3.58;2.80;;;18.40;99.90;;;;;;5051658;28;20040;-67
2021/05/31 07:10:24;;;;;;;3.20;2.90;;;18.60;99.90;;;;;;5057395;28;20055;-67
2021/05/31 07:12:50;;;;;;;5.78;2.63;;;18.60;99.90;;;;;;5051857;28;20032;-68
2021/05/31 07:15:18;;;;;;;5.85;2.92;;;18.90;99.90;;;;;;5058216;28;20047;-69
2021/05/31 07:17:44;;;;;;;3.88;2.22;;;19.10;99.90;;;;;;5052020;28;20647;-68
2021/05/31 07:20:12;;;;;;;2.78;2.55;;;19.10;99.90;;;;;;5058357;28;20107;-68
2021/05/31 07:22:39;;;;;;;3.80;2.55;;;19.20;99.90;;;;;;5051163;28;20031;-67
2021/05/31 07:25:06;;;;;;;3.00;2.70;;;19.40;99.90;;;;;;5062316;28;20401;-68
2021/05/31 07:27:33;;;;;;;2.88;2.55;;;19.40;99.90;;;;;;5055030;28;20024;-68
2021/05/31 07:29:58;;;;;;;7.75;3.20;;;19.50;99.90;;;;;;5061735;28;20029;-68
2021/05/31 07:32:24;;;;;;;2.38;2.28;;;19.90;99.90;;;;;;5054540;28;20033;-67
2021/05/31 07:34:50;;;;;;;2.20;2.00;;;19.90;99.90;;;;;;5063108;28;20112;-68
2021/05/31 07:37:16;;;;;;;3.20;2.00;;;19.90;99.90;;;;;;5052767;28;20123;-68
2021/05/31 07:39:42;;;;;;;2.97;2.40;;;20.20;99.90;;;;;;5061982;28;20028;-67
2021/05/31 07:42:08;;;;;;;2.55;1.92;;;20.30;99.90;;;;;;5071673;28;20025;-68
2021/05/31 07:44:33;;;;;;;3.45;2.05;;;20.40;99.90;;;;;;5063863;28;20105;-68
2021/05/31 07:47:00;;;;;;;4.97;1.80;;;20.50;99.90;;;;;;5053037;28;20053;-68
2021/05/31 07:49:26;;;;;;;3.42;1.88;;;20.80;99.90;;;;;;5063956;28;20024;-67
2021/05/31 07:51:54;;;;;;;2.00;1.90;;;20.70;99.90;;;;;;5052457;28;20071;-68
2021/05/31 07:54:22;;;;;;;2.85;1.95;;;21.00;99.90;;;;;;5063969;28;20063;-67
2021/05/31 07:56:48;;;;;;;3.22;2.03;;;21.00;99.90;;;;;;5052256;28;20029;-68
2021/05/31 07:59:14;;;;;;;2.47;1.90;;;21.00;99.90;;;;;;5063846;28;20035;-68
2021/05/31 08:01:40;;;;;;;1.73;1.50;;;21.10;99.90;;;;;;5053024;28;20017;-67
2021/05/31 08:04:06;;;;;;;2.05;1.88;;;21.10;99.90;;;;;;5063568;28;20407;-68
2021/05/31 08:06:36;;;;;;;2.33;2.13;;;21.20;99.90;;;;;;5052610;28;20025;-69
2021/05/31 08:09:05;;;;;;;2.47;2.20;;;21.20;99.90;;;;;;5062527;28;20029;-67
2021/05/31 08:11:31;;;;;;;2.10;2.00;;;21.40;99.90;;;;;;5052450;28;20473;-68
2021/05/31 08:13:57;;;;;;;2.90;1.95;;;21.40;99.90;;;;;;5061459;28;20036;-67
2021/05/31 08:16:22;;;;;;;9.25;2.42;;;21.50;99.90;;;;;;5053921;28;20115;-68
2021/05/31 08:18:51;;;;;;;4.35;2.15;;;21.70;99.90;;;;;;5060784;28;20036;-68
2021/05/31 08:21:16;;;;;;;5.68;2.42;;;21.80;99.90;;;;;;5054924;28;20017;-68
2021/05/31 08:23:42;;;;;;;2.70;2.28;;;21.80;99.90;;;;;;5059324;28;20544;-68
2021/05/31 08:26:08;;;;;;;2.30;2.10;;;21.80;99.90;;;;;;5055268;28;20131;-68
2021/05/31 08:28:36;;;;;;;2.92;2.15;;;21.80;99.90;;;;;;5058043;28;20074;-68
2021/05/31 08:31:02;;;;;;;4.07;2.40;;;21.60;99.90;;;;;;5056648;28;20427;-67
2021/05/31 08:33:27;;;;;;;5.10;2.60;;;21.60;99.90;;;;;;5057377;28;20115;-68
2021/05/31 08:35:53;;;;;;;2.15;1.95;;;21.90;99.90;;;;;;5057006;28;20108;-68
2021/05/31 08:38:19;;;;;;;6.53;2.40;;;21.60;99.90;;;;;;5055431;28;20529;-67
2021/05/31 08:40:45;;;;;;;4.90;2.70;;;21.60;99.90;;;;;;5058382;28;20036;-68
2021/05/31 08:43:11;;;;;;;4.82;2.45;;;21.70;99.90;;;;;;5054845;28;20033;-68
2021/05/31 08:45:38;;;;;;;3.67;2.40;;;22.00;99.90;;;;;;5059716;28;20021;-68
2021/05/31 08:48:06;;;;;;;3.85;2.50;;;21.80;99.90;;;;;;5054245;28;20410;-67
2021/05/31 08:50:33;;;;;;;2.88;2.50;;;22.20;99.90;;;;;;5063021;28;20071;-67
2021/05/31 08:52:59;;;;;;;4.95;2.10;;;22.40;99.90;;;;;;5065728;28;20028;-68
2021/05/31 08:55:28;;;;;;;2.92;2.70;;;22.30;99.90;;;;;;5060055;28;20048;-67
2021/05/31 08:57:55;;;;;;;5.07;2.80;;;22.20;99.90;;;;;;5054425;28;20017;-68
2021/05/31 09:00:24;;;;;;;3.60;2.58;;;22.60;99.90;;;;;;5039807;28;20373;-68
2021/05/31 09:02:51;;;;;;;2.60;2.40;;;22.50;99.90;;;;;;5053550;28;20404;-68
2021/05/31 09:05:29;;;;;;;2.47;2.17;;;22.70;99.90;;;;;;5060485;28;20029;-68
2021/05/31 09:07:55;;;;;;;4.93;2.67;;;22.60;99.90;;;;;;5053401;28;20634;-68
2021/05/31 09:10:23;;;;;;;3.53;2.25;;;22.50;99.90;;;;;;5059713;28;20025;-69
2021/05/31 09:12:51;;;;;;;2.65;2.45;;;22.70;99.90;;;;;;5054063;28;20024;-67
2021/05/31 09:15:17;;;;;;;4.78;2.22;;;22.90;99.90;;;;;;5059956;28;20032;-67
2021/05/31 09:17:47;;;;;;;2.30;2.20;;;23.20;99.90;;;;;;5053753;28;20052;-67
2021/05/31 09:20:13;;;;;;;5.90;2.22;;;23.10;99.90;;;;;;5059846;28;20021;-68
2021/05/31 09:22:50;;;;;;;4.55;2.17;;;23.30;99.90;;;;;;5053091;28;20099;-69
2021/05/31 09:25:34;;;;;;;6.00;2.30;;;23.50;99.90;;;;;;5059419;28;20108;-68
2021/05/31 09:28:11;;;;;;;5.13;2.28;;;23.70;99.90;;;;;;5053211;28;20021;-68
2021/05/31 09:30:39;;;;;;;2.40;2.20;;;23.60;99.90;;;;;;5062827;28;20074;-68
2021/05/31 09:33:12;;;;;;;2.28;2.03;;;23.60;99.90;;;;;;5064868;28;20052;-67
2021/05/31 09:35:42;;;;;;;5.32;2.03;;;23.70;99.90;;;;;;5062742;28;20028;-68
2021/05/31 09:38:09;;;;;;;6.28;2.05;;;23.80;99.90;;;;;;5063870;28;20045;-71
2021/05/31 09:40:36;;;;;;;2.38;2.00;;;24.00;99.90;;;;;;5058313;28;20090;-68
2021/05/31 09:43:04;;;;;;;2.17;1.98;;;23.80;99.90;;;;;;5052876;28;20017;-67
2021/05/31 09:45:30;;;;;;;2.15;1.77;;;24.10;99.90;;;;;;5059447;28;20055;-68
2021/05/31 09:48:00;;;;;;;2.70;1.90;;;24.20;99.90;;;;;;5053311;28;20050;-68
2021/05/31 09:50:29;;;;;;;2.42;1.90;;;24.20;99.90;;;;;;5059256;28;20025;-67
2021/05/31 09:53:08;;;;;;;3.65;2.08;;;24.20;99.90;;;;;;5052884;28;20037;-68
2021/05/31 09:55:37;;;;;;;4.15;1.80;;;24.30;99.90;;;;;;5061694;28;20074;-68
2021/05/31 09:58:08;;;;;;;2.47;1.73;;;24.70;99.90;;;;;;5064172;28;20021;-68
2021/05/31 10:00:34;;;;;;;6.03;2.10;;;24.60;99.90;;;;;;5061946;28;20028;-68
2021/05/31 10:10:57;;;;;;;5.53;2.08;;;25.40;99.90;;;;;;5055725;28;20040;-68
2021/05/31 10:13:23;;;;;;;1.92;1.83;;;25.40;99.90;;;;;;5054477;28;20040;-68
2021/05/31 10:15:49;;;;;;;2.30;2.10;;;25.40;99.90;;;;;;5056841;28;20021;-68
2021/05/31 10:18:17;;;;;;;2.80;1.75;;;25.10;99.90;;;;;;5053182;28;20525;-68
2021/05/31 10:20:44;;;;;;;2.35;1.77;;;25.10;99.90;;;;;;5057608;28;20094;-68
2021/05/31 10:23:11;;;;;;;5.28;2.05;;;25.50;99.90;;;;;;5052265;28;20021;-68
2021/05/31 10:25:41;;;;;;;6.13;1.80;;;25.50;99.90;;;;;;5057911;28;20021;-67
2021/05/31 10:28:17;;;;;;;5.28;1.70;;;25.80;99.90;;;;;;5052237;28;20025;-68
2021/05/31 10:30:48;;;;;;;3.60;1.80;;;25.70;99.90;;;;;;5062710;28;20108;-67
2021/05/31 10:33:20;;;;;;;3.65;1.83;;;25.60;99.90;;;;;;5063191;28;20033;-67
2021/05/31 10:35:47;;;;;;;2.65;1.60;;;25.70;99.90;;;;;;5056656;28;20047;-68
2021/05/31 10:38:21;;;;;;;3.97;2.03;;;26.00;99.90;;;;;;5052193;28;20106;-68
2021/05/31 10:40:49;;;;;;;2.65;1.80;;;26.30;99.90;;;;;;5056343;28;20024;-68
2021/05/31 10:43:17;;;;;;;2.42;1.60;;;26.50;99.90;;;;;;5053115;28;20564;-68
2021/05/31 10:45:44;;;;;;;3.75;1.80;;;26.70;99.90;;;;;;5057115;28;20103;-67
2021/05/31 10:48:20;;;;;;;4.03;1.77;;;26.70;99.90;;;;;;5052326;28;20025;-68
2021/05/31 10:50:59;;;;;;;1.60;1.50;;;27.10;99.90;;;;;;5056689;28;20032;-68
2021/05/31 10:53:33;;;;;;;2.03;1.73;;;26.40;99.90;;;;;;5053862;28;20040;-68
2021/05/31 10:56:12;;;;;;;3.53;1.98;;;26.30;99.90;;;;;;5054357;28;20025;-68
2021/05/31 10:58:46;;;;;;;2.88;1.73;;;27.10;99.90;;;;;;5058933;28;20400;-68
2021/05/31 11:01:14;;;;;;;1.63;1.40;;;27.00;99.90;;;;;;5059926;28;20126;-68
2021/05/31 11:03:45;;;;;;;4.75;1.50;;;27.10;99.90;;;;;;5062940;28;20031;-67
2021/05/31 11:06:16;;;;;;;4.53;1.48;;;27.30;99.90;;;;;;5059958;28;20095;-68
2021/05/31 11:08:54;;;;;;;7.90;2.00;;;27.30;99.90;;;;;;5062771;28;20087;-68
2021/05/31 11:11:24;;;;;;;4.05;1.60;;;27.20;99.90;;;;;;5057997;28;20070;-69
2021/05/31 11:13:50;;;;;;;4.22;1.25;;;27.00;99.90;;;;;;5063701;28;20043;-68
2021/05/31 11:16:16;;;;;;;10.15;2.00;;;26.80;99.90;;;;;;5059240;28;20131;-68
2021/05/31 11:18:44;;;;;;;5.97;1.50;;;26.80;99.90;;;;;;5062906;28;20100;-68
2021/05/31 11:21:22;;;;;;;2.00;1.15;;;27.10;99.90;;;;;;5060109;28;20028;-67
2021/05/31 11:24:02;;;;;;;3.33;1.10;;;27.00;99.90;;;;;;5063317;28;20028;-68
2021/05/31 11:26:35;;;;;;;2.67;1.25;;;27.20;99.90;;;;;;5056880;28;20025;-68
2021/05/31 11:29:01;;;;;;;5.20;1.67;;;27.70;99.90;;;;;;5065412;28;20022;-67
2021/05/31 11:31:27;;;;;;;2.75;1.50;;;27.50;99.90;;;;;;5057427;28;20028;-67
2021/05/31 11:33:54;;;;;;;1.63;1.30;;;27.40;99.90;;;;;;5064306;28;20036;-67
2021/05/31 11:36:42;;;;;;;6.70;1.05;;;27.70;99.90;;;;;;5058523;28;20502;-68
2021/05/31 11:39:14;;;;;;;3.05;1.40;;;28.10;99.90;;;;;;5066474;28;20113;-68
2021/05/31 11:41:49;;;;;;;2.78;1.17;;;28.00;99.90;;;;;;5055480;28;20017;-68
2021/05/31 11:44:31;;;;;;;4.30;1.50;;;27.80;99.50;;;;;;5066916;28;20045;-68
2021/05/31 11:47:03;;;;;;;2.83;1.25;;;27.80;99.30;;;;;;5056083;28;20021;-68
2021/05/31 11:49:35;;;;;;;2.47;1.15;;;28.40;99.50;;;;;;5047831;28;20031;-68
2021/05/31 11:52:05;;;;;;;1.80;1.70;;;28.20;98.40;;;;;;5055401;28;20036;-68
2021/05/31 11:54:41;;;;;;;2.58;1.23;;;28.20;98.70;;;;;;5063741;28;20496;-68
2021/05/31 11:57:12;;;;;;;4.53;1.50;;;28.90;99.90;;;;;;5075116;28;20024;-68
2021/05/31 11:59:43;;;;;;;3.85;1.70;;;29.40;99.00;;;;;;5064414;28;20017;-68
2021/05/31 12:02:11;;;;;;;2.20;1.23;;;28.10;98.50;;;;;;5074888;28;20040;-68
2021/05/31 12:04:37;;;;;;;6.78;1.42;;;28.60;99.00;;;;;;5064207;28;20027;-67
2021/05/31 12:07:09;;;;;;;1.77;1.52;;;28.80;98.30;;;;;;5075116;28;20031;-67
2021/05/31 12:09:53;;;;;;;4.32;1.40;;;28.60;98.20;;;;;;5062235;28;20028;-68
2021/05/31 12:12:21;;;;;;;6.53;1.60;;;29.10;98.30;;;;;;5070241;28;20459;-68
2021/05/31 12:14:57;;;;;;;4.35;1.48;;;28.50;97.90;;;;;;5061302;28;20020;-68
2021/05/31 12:17:25;;;;;;;6.50;1.35;;;28.90;98.20;;;;;;5070576;28;20031;-69
2021/05/31 12:19:51;;;;;;;1.75;1.52;;;29.20;98.20;;;;;;5051044;28;20037;-68
2021/05/31 12:22:19;;;;;;;2.92;1.30;;;29.40;97.20;;;;;;5052193;28;20069;-68
2021/05/31 12:24:47;;;;;;;2.28;1.35;;;29.30;97.70;;;;;;5062911;28;20050;-67
2021/05/31 12:27:14;;;;;;;3.90;1.83;;;29.50;96.80;;;;;;5051923;28;20041;-67
2021/05/31 12:29:48;;;;;;;3.55;1.52;;;28.90;97.40;;;;;;5062973;28;20074;-68
2021/05/31 12:32:15;;;;;;;10.00;1.70;;;29.10;97.90;;;;;;5052391;28;20029;-69
2021/05/31 12:34:42;;;;;;;4.72;1.88;;;29.00;97.20;;;;;;5063126;28;20108;-68
2021/05/31 12:37:13;;;;;;;2.08;1.63;;;29.10;97.90;;;;;;5050983;28;20045;-68
2021/05/31 12:39:48;;;;;;;6.07;1.27;;;29.60;97.40;;;;;;5062935;28;20025;-68
2021/05/31 12:42:25;;;;;;;5.22;1.33;;;29.70;97.40;;;;;;5051731;28;20017;-68
2021/05/31 12:44:51;;;;;;;1.58;1.48;;;29.90;98.10;;;;;;5062275;28;20399;-68
2021/05/31 12:47:19;;;;;;;1.65;1.50;;;30.00;97.00;;;;;;5052072;28;20025;-68
2021/05/31 12:49:50;;;;;;;6.78;1.75;;;30.00;97.10;;;;;;5062851;28;20094;-68
2021/05/31 12:52:24;;;;;;;6.57;2.08;;;30.20;96.60;;;;;;5051493;28;20024;-69
2021/05/31 12:55:00;;;;;;;4.57;1.90;;;29.90;97.20;;;;;;5061192;28;20157;-68
2021/05/31 12:57:30;;;;;;;;;;;30.00;96.60;;;;;;5069514;28;20069;-68
2021/05/31 12:59:56;;;;;;;9.98;2.00;;;29.30;96.50;;;;;;5061243;28;20493;-68
2021/05/31 13:02:22;;;;;;;4.85;1.80;;;29.60;96.40;;;;;;5051943;28;20028;-68
2021/05/31 13:05:16;;;;;;;5.38;1.52;;;29.70;97.10;;;;;;5060553;28;20028;-69
2021/05/31 13:07:50;;;;;;;7.60;1.92;;;29.90;97.40;;;;;;5065671;28;20048;-68
2021/05/31 13:10:21;;;;;;;3.85;1.80;;;30.10;95.70;;;;;;5059760;28;20040;-69
2021/05/31 13:13:02;;;;;;;3.17;1.58;;;30.70;96.70;;;;;;5053806;28;20154;-69